Time;durP1;ratioP1;P1;durP2;ratioP2;P2;SDS_P1;SDS_P2;PMS_P1;PMS_P2;Temp;Humidity;BMP_temperature;BMP_pressure;BME280_temperature;BME280_humidity;BME280_pressure;Samples;Min_cycle;Max_cycle;Signal;HPM_P1;HPM_P2
2022/06/30 00:00:17;;;;;;;12.45;4.53;;;18.50;99.90;;;;;;5053612;28;20021;-74
2022/06/30 00:02:42;;;;;;;10.30;4.00;;;18.40;99.90;;;;;;5053596;28;20051;-75
2022/06/30 00:05:08;;;;;;;9.55;4.00;;;18.40;99.90;;;;;;5053542;28;20491;-74
2022/06/30 00:07:35;;;;;;;8.38;3.15;;;18.30;99.90;;;;;;5053727;28;20036;-76
2022/06/30 00:10:01;;;;;;;9.13;3.97;;;18.20;99.90;;;;;;5053063;28;20481;-75
2022/06/30 00:12:26;;;;;;;15.70;3.25;;;18.30;99.90;;;;;;5053637;28;20037;-73
2022/06/30 00:14:52;;;;;;;10.18;3.13;;;18.20;99.90;;;;;;5053115;28;20074;-75
2022/06/30 00:17:18;;;;;;;10.25;3.20;;;18.20;99.90;;;;;;5053580;28;20029;-74
2022/06/30 00:19:45;;;;;;;9.50;2.70;;;18.20;99.90;;;;;;5053261;28;20103;-75
2022/06/30 00:22:12;;;;;;;7.95;2.47;;;18.20;99.90;;;;;;5053048;28;20029;-73
2022/06/30 00:24:38;;;;;;;8.48;2.33;;;18.10;99.90;;;;;;5053279;28;20037;-75
2022/06/30 00:27:05;;;;;;;9.80;2.72;;;18.00;99.90;;;;;;5056988;28;20036;-75
2022/06/30 00:29:31;;;;;;;18.70;2.65;;;18.30;99.90;;;;;;5071706;28;20051;-74
2022/06/30 00:31:57;;;;;;;7.22;2.20;;;18.50;99.90;;;;;;5072730;28;20055;-73
2022/06/30 00:34:23;;;;;;;5.10;1.95;;;18.50;99.90;;;;;;5072913;28;20024;-74
2022/06/30 00:36:50;;;;;;;4.95;1.75;;;18.50;99.90;;;;;;5073048;28;20040;-74
2022/06/30 00:39:15;;;;;;;5.82;2.08;;;18.40;99.90;;;;;;5073145;28;20017;-74
2022/06/30 00:41:42;;;;;;;8.63;1.90;;;18.40;99.90;;;;;;5073079;28;20606;-75
2022/06/30 00:44:10;;;;;;;7.68;2.40;;;18.40;99.90;;;;;;5072050;28;20024;-74
2022/06/30 00:46:36;;;;;;;6.43;2.25;;;18.30;99.90;;;;;;5067714;28;20017;-75
2022/06/30 00:49:02;;;;;;;10.73;2.15;;;18.30;99.90;;;;;;5037788;28;20039;-74
2022/06/30 00:51:28;;;;;;;6.40;1.98;;;18.20;99.90;;;;;;5065190;28;20020;-74
2022/06/30 00:53:56;;;;;;;6.95;2.05;;;18.10;99.90;;;;;;5072830;28;20064;-73
2022/06/30 00:56:26;;;;;;;8.25;2.65;;;18.10;99.90;;;;;;5073018;28;20021;-74
2022/06/30 00:58:55;;;;;;;8.57;1.98;;;18.10;99.90;;;;;;5072722;28;20115;-74
2022/06/30 01:01:23;;;;;;;7.32;2.13;;;18.00;99.90;;;;;;5072794;28;20091;-72
2022/06/30 01:03:50;;;;;;;7.03;1.77;;;18.10;99.90;;;;;;5072817;28;20032;-75
2022/06/30 01:06:17;;;;;;;5.88;2.35;;;18.30;99.90;;;;;;5072858;28;20082;-75
2022/06/30 01:08:44;;;;;;;13.23;2.80;;;18.30;99.90;;;;;;5064583;28;20477;-73
2022/06/30 01:13:54;;;;;;;5.82;2.38;;;18.20;99.90;;;;;;5073234;28;20032;-74
2022/06/30 01:16:21;;;;;;;4.38;2.78;;;18.00;99.90;;;;;;5072581;28;20052;-73
2022/06/30 01:18:47;;;;;;;7.20;2.50;;;18.00;99.90;;;;;;5072701;28;20111;-73
2022/06/30 01:21:13;;;;;;;8.02;2.92;;;18.10;99.90;;;;;;5072649;28;20095;-75
2022/06/30 01:23:39;;;;;;;7.05;2.60;;;18.10;99.90;;;;;;5072681;28;20028;-74
2022/06/30 01:26:04;;;;;;;9.75;3.70;;;18.00;99.90;;;;;;5072221;28;20055;-73
2022/06/30 01:28:30;;;;;;;7.82;3.60;;;18.20;99.90;;;;;;5072822;28;20031;-74
2022/06/30 01:30:56;;;;;;;8.07;2.58;;;18.40;99.90;;;;;;5072313;28;20047;-74
2022/06/30 01:33:22;;;;;;;9.60;3.40;;;18.50;99.90;;;;;;5071220;28;20036;-76
2022/06/30 01:35:48;;;;;;;7.90;2.90;;;18.70;99.90;;;;;;5072458;28;20029;-75
2022/06/30 01:38:14;;;;;;;7.50;3.53;;;18.80;99.90;;;;;;5072324;28;20405;-74
2022/06/30 01:40:39;;;;;;;6.75;3.83;;;18.50;99.90;;;;;;5072089;28;20429;-74
2022/06/30 01:43:06;;;;;;;5.88;3.70;;;18.20;99.90;;;;;;5074644;28;20521;-74
2022/06/30 01:45:33;;;;;;;10.15;3.35;;;18.00;99.90;;;;;;5076190;28;20103;-74
2022/06/30 01:47:59;;;;;;;8.73;4.03;;;18.00;99.90;;;;;;5073139;28;20487;-75
2022/06/30 01:50:27;;;;;;;6.82;3.85;;;18.10;99.90;;;;;;5075916;28;20025;-75
2022/06/30 01:52:54;;;;;;;9.70;4.20;;;18.00;99.90;;;;;;5076188;28;20029;-74
2022/06/30 01:55:20;;;;;;;14.18;4.70;;;18.10;99.90;;;;;;5075626;28;20041;-75
2022/06/30 01:57:46;;;;;;;9.02;4.45;;;18.30;99.90;;;;;;5075955;28;20148;-76
2022/06/30 02:00:14;;;;;;;8.18;4.07;;;18.50;99.90;;;;;;5074712;28;20021;-75
2022/06/30 02:02:41;;;;;;;9.75;4.70;;;18.30;99.90;;;;;;5074534;28;20045;-73
2022/06/30 02:05:07;;;;;;;10.35;4.03;;;18.10;99.90;;;;;;5075840;28;20027;-74
2022/06/30 02:07:36;;;;;;;8.60;3.50;;;17.80;99.90;;;;;;5075563;28;20031;-75
2022/06/30 02:10:08;;;;;;;7.50;3.78;;;17.80;99.90;;;;;;5069587;28;20025;-73
2022/06/30 02:12:46;;;;;;;9.70;3.63;;;17.70;99.90;;;;;;5075682;28;20492;-75
2022/06/30 02:15:36;;;;;;;8.40;3.38;;;17.80;99.90;;;;;;5075736;28;20024;-74
2022/06/30 02:18:05;;;;;;;10.65;3.20;;;17.90;99.90;;;;;;5076203;28;20037;-74
2022/06/30 02:20:31;;;;;;;14.45;3.97;;;18.00;99.90;;;;;;5075687;28;20017;-75
2022/06/30 02:22:58;;;;;;;10.70;3.45;;;17.90;99.90;;;;;;5075472;28;20102;-74
2022/06/30 02:25:26;;;;;;;20.25;3.40;;;17.80;99.90;;;;;;5074080;28;20020;-74
2022/06/30 02:27:52;;;;;;;9.27;4.28;;;17.90;99.90;;;;;;5075306;28;20372;-75
2022/06/30 02:30:18;;;;;;;11.88;4.72;;;17.80;99.90;;;;;;5075693;28;20069;-73
2022/06/30 02:32:44;;;;;;;13.30;5.28;;;17.90;99.90;;;;;;5075214;28;20400;-75
2022/06/30 02:35:11;;;;;;;14.90;5.10;;;17.80;99.90;;;;;;5075493;28;20032;-73
2022/06/30 02:37:37;;;;;;;8.23;4.40;;;17.80;99.90;;;;;;5075145;28;20491;-73
2022/06/30 02:40:03;;;;;;;12.82;4.90;;;17.90;99.90;;;;;;5074888;28;20059;-75
2022/06/30 02:42:29;;;;;;;12.48;4.88;;;17.80;99.90;;;;;;5075329;28;20040;-74
2022/06/30 02:44:55;;;;;;;8.93;4.93;;;17.60;99.90;;;;;;5075639;28;20025;-75
2022/06/30 02:47:20;;;;;;;15.30;5.55;;;17.40;99.90;;;;;;5072162;28;20031;-75
2022/06/30 02:49:46;;;;;;;15.75;5.90;;;17.60;99.90;;;;;;5074593;28;20077;-74
2022/06/30 02:52:12;;;;;;;15.27;6.10;;;18.10;99.90;;;;;;5075014;28;20036;-73
2022/06/30 02:54:38;;;;;;;12.63;5.43;;;18.10;99.90;;;;;;5074972;28;20024;-74
2022/06/30 02:57:04;;;;;;;12.60;4.90;;;18.10;99.90;;;;;;5073473;28;20044;-75
2022/06/30 02:59:30;;;;;;;17.48;4.53;;;17.90;99.90;;;;;;5074851;28;20024;-74
2022/06/30 03:01:55;;;;;;;17.23;5.32;;;17.50;99.90;;;;;;5074356;28;20457;-74
2022/06/30 03:04:21;;;;;;;16.70;5.18;;;17.10;99.90;;;;;;5074931;28;20025;-75
2022/06/30 03:06:47;;;;;;;13.30;4.50;;;17.30;99.90;;;;;;5074521;28;20025;-75
2022/06/30 03:09:13;;;;;;;14.70;4.90;;;16.80;99.90;;;;;;5068442;28;20039;-73
2022/06/30 03:11:39;;;;;;;18.38;5.50;;;16.80;99.90;;;;;;5074759;28;20020;-74
2022/06/30 03:14:05;;;;;;;18.38;5.25;;;17.00;99.90;;;;;;5073007;28;20038;-74
2022/06/30 03:16:31;;;;;;;12.38;4.13;;;16.70;99.90;;;;;;5074601;28;20032;-73
2022/06/30 03:18:57;;;;;;;13.88;4.78;;;16.80;99.90;;;;;;5074247;28;20032;-73
2022/06/30 03:21:23;;;;;;;15.65;6.50;;;17.00;99.90;;;;;;5074585;28;20024;-73
2022/06/30 03:23:49;;;;;;;15.90;5.38;;;17.00;99.90;;;;;;5073895;28;20036;-73
2022/06/30 03:26:16;;;;;;;14.85;5.07;;;16.80;99.90;;;;;;5073201;28;20029;-73
2022/06/30 03:28:42;;;;;;;12.98;4.65;;;16.80;99.90;;;;;;5074075;28;20024;-74
2022/06/30 03:31:07;;;;;;;16.60;5.18;;;16.70;99.90;;;;;;5073582;28;20031;-74
2022/06/30 03:33:33;;;;;;;10.02;4.57;;;16.70;99.90;;;;;;5073838;28;20131;-75
2022/06/30 03:35:59;;;;;;;14.93;4.95;;;16.70;99.90;;;;;;5073787;28;20202;-74
2022/06/30 03:38:25;;;;;;;13.55;4.53;;;16.70;99.90;;;;;;5073657;28;20107;-74
2022/06/30 03:40:51;;;;;;;16.45;4.40;;;16.50;99.90;;;;;;5074340;28;20032;-75
2022/06/30 03:43:17;;;;;;;15.70;3.83;;;16.70;99.90;;;;;;5073702;28;20052;-74
2022/06/30 03:45:43;;;;;;;11.90;3.78;;;16.80;99.90;;;;;;5072849;28;20017;-73
2022/06/30 03:48:09;;;;;;;15.40;4.28;;;16.90;99.90;;;;;;5070433;28;20036;-74
2022/06/30 03:50:35;;;;;;;13.02;4.25;;;16.70;99.90;;;;;;5073720;28;20021;-74
2022/06/30 03:53:02;;;;;;;10.32;4.38;;;16.80;99.90;;;;;;5073867;28;20024;-74
2022/06/30 03:55:28;;;;;;;9.90;4.15;;;16.90;99.90;;;;;;5073826;28;20020;-74
2022/06/30 03:57:54;;;;;;;14.23;3.90;;;17.10;99.90;;;;;;5073330;28;20040;-73
2022/06/30 04:00:20;;;;;;;14.82;3.92;;;17.20;99.90;;;;;;5073665;28;20377;-74
2022/06/30 04:02:46;;;;;;;11.85;4.32;;;17.00;99.90;;;;;;5073922;28;20032;-73
2022/06/30 04:05:12;;;;;;;12.88;3.92;;;16.70;99.90;;;;;;5072465;28;20029;-73
2022/06/30 04:07:42;;;;;;;11.30;3.85;;;16.50;99.90;;;;;;5073498;28;20067;-73
2022/06/30 04:10:10;;;;;;;14.90;3.83;;;16.50;99.90;;;;;;5061827;28;20025;-74
2022/06/30 04:12:35;;;;;;;13.18;3.85;;;16.60;99.90;;;;;;5073521;28;20381;-74
2022/06/30 04:15:02;;;;;;;15.45;4.60;;;16.70;99.90;;;;;;5073463;28;20028;-74
2022/06/30 04:17:27;;;;;;;9.93;3.90;;;16.70;99.90;;;;;;5073167;28;20040;-74
2022/06/30 04:19:53;;;;;;;13.45;3.80;;;16.70;99.90;;;;;;5072973;28;20020;-73
2022/06/30 04:22:19;;;;;;;11.45;3.95;;;17.00;99.90;;;;;;5073338;28;20469;-73
2022/06/30 04:24:44;;;;;;;11.30;3.40;;;17.10;99.90;;;;;;5073410;28;20020;-73
2022/06/30 04:27:10;;;;;;;12.27;4.22;;;17.00;99.90;;;;;;5073033;28;20029;-73
2022/06/30 04:29:36;;;;;;;12.85;3.88;;;16.60;99.90;;;;;;5073034;28;20028;-72
2022/06/30 04:34:46;;;;;;;12.73;4.05;;;17.10;99.90;;;;;;5046734;28;20052;-74
2022/06/30 04:37:12;;;;;;;14.15;4.10;;;17.30;99.90;;;;;;5073119;28;20137;-74
2022/06/30 04:39:37;;;;;;;10.98;3.80;;;17.10;99.90;;;;;;5072713;28;20021;-74
2022/06/30 04:42:04;;;;;;;12.10;4.43;;;17.20;99.90;;;;;;5073299;28;20028;-74
2022/06/30 04:44:29;;;;;;;15.30;3.92;;;17.40;99.90;;;;;;5073023;28;20112;-74
2022/06/30 04:46:55;;;;;;;11.27;3.45;;;17.30;99.90;;;;;;5069900;28;20455;-75
2022/06/30 04:49:21;;;;;;;11.85;4.35;;;17.60;99.90;;;;;;5072424;28;20106;-75
2022/06/30 04:51:46;;;;;;;13.02;4.25;;;18.10;99.90;;;;;;5072964;28;20044;-73
2022/06/30 04:54:12;;;;;;;9.93;3.92;;;18.40;99.90;;;;;;5072936;28;20064;-75
2022/06/30 04:56:38;;;;;;;13.07;3.78;;;18.40;99.90;;;;;;5072738;28;20036;-74
2022/06/30 04:59:03;;;;;;;16.58;3.53;;;18.20;99.90;;;;;;5072656;28;20028;-74
2022/06/30 05:01:29;;;;;;;9.63;3.70;;;18.10;99.90;;;;;;5072905;28;20384;-74
2022/06/30 05:03:55;;;;;;;8.45;3.50;;;18.00;99.90;;;;;;5072581;28;20085;-75
2022/06/30 05:06:21;;;;;;;11.52;3.38;;;18.40;99.90;;;;;;5072845;28;20021;-74
2022/06/30 05:08:48;;;;;;;10.10;3.20;;;17.90;99.90;;;;;;5066515;28;20054;-74
2022/06/30 05:11:14;;;;;;;13.57;2.92;;;17.90;99.90;;;;;;5072678;28;20028;-74
2022/06/30 05:13:40;;;;;;;10.88;3.00;;;17.80;99.90;;;;;;5072699;28;20036;-75
2022/06/30 05:16:06;;;;;;;9.25;2.80;;;17.90;99.90;;;;;;5072865;28;20025;-75
2022/06/30 05:18:31;;;;;;;11.38;2.75;;;17.80;99.90;;;;;;5075542;28;20032;-74
2022/06/30 05:20:57;;;;;;;12.98;3.47;;;17.90;99.90;;;;;;5075150;28;20021;-75
2022/06/30 05:23:23;;;;;;;14.23;3.63;;;18.30;99.90;;;;;;5075708;28;20029;-73
2022/06/30 05:28:33;;;;;;;11.73;3.15;;;18.00;99.90;;;;;;5076396;28;20025;-73
2022/06/30 05:30:59;;;;;;;11.18;3.22;;;18.00;99.90;;;;;;5076363;28;20028;-75
2022/06/30 05:33:25;;;;;;;15.60;3.53;;;18.00;99.90;;;;;;5076081;28;20433;-74
2022/06/30 05:35:52;;;;;;;9.85;3.35;;;18.20;99.90;;;;;;5076256;28;20166;-73
2022/06/30 05:38:18;;;;;;;13.55;3.05;;;18.30;99.90;;;;;;5076093;28;20039;-73
2022/06/30 05:40:47;;;;;;;10.00;2.80;;;18.40;99.90;;;;;;5076196;28;20032;-75
2022/06/30 05:43:17;;;;;;;8.73;2.67;;;18.30;99.90;;;;;;5076086;28;20024;-75
2022/06/30 05:45:46;;;;;;;12.07;3.78;;;18.10;99.90;;;;;;5076127;28;20107;-74
2022/06/30 05:48:12;;;;;;;11.63;3.33;;;18.20;99.90;;;;;;5072678;28;20495;-75
2022/06/30 05:50:38;;;;;;;12.43;3.63;;;18.60;99.90;;;;;;5075997;28;20106;-74
2022/06/30 05:53:04;;;;;;;14.15;3.05;;;18.60;99.90;;;;;;5076117;28;20063;-73
2022/06/30 05:55:29;;;;;;;11.93;2.97;;;18.70;99.90;;;;;;5075886;28;20048;-76
2022/06/30 05:57:58;;;;;;;9.98;2.92;;;19.00;99.90;;;;;;5075792;28;20495;-73
2022/06/30 06:00:27;;;;;;;10.30;3.00;;;18.90;99.90;;;;;;5075937;28;20070;-75
2022/06/30 06:02:53;;;;;;;14.82;3.30;;;18.60;99.90;;;;;;5075538;28;20090;-74
2022/06/30 06:05:19;;;;;;;17.35;4.43;;;18.40;99.90;;;;;;5075654;28;20017;-74
2022/06/30 06:07:45;;;;;;;13.15;3.67;;;18.20;99.90;;;;;;5075376;28;20035;-75
2022/06/30 06:10:13;;;;;;;10.77;4.00;;;17.70;99.90;;;;;;5070858;28;20047;-75
2022/06/30 06:12:39;;;;;;;7.03;3.35;;;17.60;99.90;;;;;;5075789;28;20104;-74
2022/06/30 06:15:05;;;;;;;9.23;3.65;;;17.70;99.90;;;;;;5075838;28;20013;-69
2022/06/30 06:17:38;;;;;;;9.82;3.70;;;18.00;99.90;;;;;;5075181;28;20457;-73
2022/06/30 06:20:05;;;;;;;11.38;3.50;;;18.10;99.90;;;;;;5075683;28;20453;-72
2022/06/30 06:22:30;;;;;;;11.00;3.45;;;18.30;99.90;;;;;;5075497;28;20017;-73
2022/06/30 06:24:56;;;;;;;14.52;4.18;;;18.60;99.90;;;;;;5075521;28;20086;-74
2022/06/30 06:27:22;;;;;;;9.30;3.40;;;19.00;99.90;;;;;;5075448;28;20025;-73
2022/06/30 06:29:48;;;;;;;11.25;3.38;;;18.80;99.90;;;;;;5075108;28;20487;-72
2022/06/30 06:32:13;;;;;;;12.98;3.67;;;18.50;99.90;;;;;;5074869;28;20111;-73
2022/06/30 06:34:39;;;;;;;11.68;3.58;;;18.50;99.90;;;;;;5047344;28;20048;-74
2022/06/30 06:37:05;;;;;;;14.15;3.60;;;18.60;99.90;;;;;;5075227;28;20032;-74
2022/06/30 06:39:32;;;;;;;13.30;3.70;;;18.70;99.90;;;;;;5075240;28;20035;-75
2022/06/30 06:41:57;;;;;;;9.88;3.13;;;18.90;99.90;;;;;;5075107;28;20056;-73
2022/06/30 06:44:23;;;;;;;12.38;3.42;;;18.90;99.90;;;;;;5075089;28;20048;-73
2022/06/30 06:46:49;;;;;;;13.52;3.05;;;18.90;99.90;;;;;;5071505;28;20384;-73
2022/06/30 06:49:14;;;;;;;9.18;3.10;;;18.90;99.90;;;;;;5074812;28;20028;-73
2022/06/30 06:51:40;;;;;;;9.02;3.05;;;19.00;99.90;;;;;;5074938;28;20028;-73
2022/06/30 06:54:06;;;;;;;7.30;2.70;;;18.90;99.90;;;;;;5075403;28;20020;-73
2022/06/30 06:56:32;;;;;;;12.68;2.72;;;18.90;99.90;;;;;;5074861;28;20469;-74
2022/06/30 06:58:59;;;;;;;8.25;2.75;;;18.90;99.90;;;;;;5074681;28;20090;-73
2022/06/30 07:01:25;;;;;;;11.98;2.80;;;19.10;99.90;;;;;;5074791;28;20036;-73
2022/06/30 07:03:51;;;;;;;12.57;3.17;;;19.50;99.90;;;;;;5074696;28;20051;-73
2022/06/30 07:06:17;;;;;;;13.88;3.28;;;19.70;99.90;;;;;;5074813;28;20115;-74
2022/06/30 07:08:42;;;;;;;7.55;2.75;;;19.40;99.90;;;;;;5068520;28;20031;-73
2022/06/30 07:11:09;;;;;;;12.07;2.83;;;20.00;99.90;;;;;;5074826;28;20023;-74
2022/06/30 07:13:35;;;;;;;5.45;2.83;;;19.90;99.90;;;;;;5074208;28;20031;-73
2022/06/30 07:16:02;;;;;;;6.68;2.85;;;20.00;99.90;;;;;;5074421;28;20139;-73
2022/06/30 07:18:28;;;;;;;8.80;2.65;;;19.80;99.90;;;;;;5074317;28;20033;-74
2022/06/30 07:20:54;;;;;;;11.05;3.22;;;20.10;99.90;;;;;;5074193;28;20021;-74
2022/06/30 07:23:20;;;;;;;9.77;2.72;;;20.30;99.90;;;;;;5074215;28;20029;-73
2022/06/30 07:25:46;;;;;;;9.27;3.03;;;20.40;99.90;;;;;;5073998;28;20029;-73
2022/06/30 07:28:12;;;;;;;9.23;2.80;;;20.20;99.90;;;;;;5073746;28;20032;-74
2022/06/30 07:30:37;;;;;;;11.73;3.17;;;20.50;99.90;;;;;;5074161;28;20107;-73
2022/06/30 07:33:03;;;;;;;10.85;2.80;;;20.70;99.90;;;;;;5073990;28;20409;-72
2022/06/30 07:35:29;;;;;;;5.78;2.97;;;20.60;99.90;;;;;;5074081;28;20380;-74
2022/06/30 07:37:55;;;;;;;8.63;2.72;;;20.50;99.90;;;;;;5073746;28;20086;-73
2022/06/30 07:40:21;;;;;;;8.18;2.55;;;20.70;99.90;;;;;;5073550;28;20465;-73
2022/06/30 07:42:48;;;;;;;5.68;2.35;;;21.00;99.90;;;;;;5073625;28;20075;-74
2022/06/30 07:45:14;;;;;;;10.32;2.90;;;21.30;99.90;;;;;;5073832;28;20021;-73
2022/06/30 07:47:43;;;;;;;14.25;2.83;;;21.40;99.90;;;;;;5070782;28;20033;-75
2022/06/30 07:50:09;;;;;;;11.85;3.28;;;21.30;99.90;;;;;;5073775;28;20017;-74
2022/06/30 07:52:35;;;;;;;5.32;2.13;;;21.30;99.90;;;;;;5073964;28;20542;-74
2022/06/30 07:55:01;;;;;;;8.90;2.88;;;21.40;99.90;;;;;;5073434;28;20020;-73
2022/06/30 07:57:27;;;;;;;10.68;3.50;;;21.80;99.90;;;;;;5073429;28;20115;-74
2022/06/30 07:59:54;;;;;;;9.73;3.47;;;21.30;99.90;;;;;;5073729;28;20060;-73
2022/06/30 08:02:20;;;;;;;12.10;3.70;;;21.20;99.90;;;;;;5073907;28;20373;-73
2022/06/30 08:04:46;;;;;;;10.25;3.42;;;21.00;99.90;;;;;;5073692;28;20021;-74
2022/06/30 08:07:12;;;;;;;10.35;4.28;;;21.10;99.90;;;;;;5073316;28;20404;-74
2022/06/30 08:09:38;;;;;;;14.63;3.60;;;21.40;99.90;;;;;;5067674;28;20032;-74
2022/06/30 08:12:06;;;;;;;13.70;3.90;;;21.20;99.90;;;;;;5072993;28;20079;-73
2022/06/30 08:14:33;;;;;;;9.65;3.47;;;21.50;99.90;;;;;;5073524;28;20078;-74
2022/06/30 08:16:59;;;;;;;12.13;3.50;;;21.30;99.90;;;;;;5073355;28;20393;-74
2022/06/30 08:19:25;;;;;;;10.25;3.85;;;21.20;99.90;;;;;;5073172;28;20019;-74
2022/06/30 08:21:51;;;;;;;9.98;4.03;;;20.70;99.90;;;;;;5073473;28;20028;-74
2022/06/30 08:24:17;;;;;;;12.63;3.75;;;20.80;99.90;;;;;;5073239;28;20445;-73
2022/06/30 08:26:43;;;;;;;10.30;3.50;;;21.10;99.90;;;;;;5073027;28;20385;-75
2022/06/30 08:29:08;;;;;;;16.90;4.60;;;21.40;99.90;;;;;;5072872;28;20027;-74
2022/06/30 08:31:35;;;;;;;8.30;3.75;;;21.60;99.90;;;;;;5073471;28;20108;-74
2022/06/30 08:34:02;;;;;;;18.48;4.65;;;21.60;99.90;;;;;;5072599;28;20047;-73
2022/06/30 08:36:28;;;;;;;11.70;3.80;;;21.40;99.90;;;;;;5073130;28;20481;-73
2022/06/30 08:38:54;;;;;;;10.35;4.43;;;21.40;99.90;;;;;;5072877;28;20031;-74
2022/06/30 08:44:05;;;;;;;12.98;3.63;;;22.20;99.90;;;;;;5072873;28;20021;-73
2022/06/30 08:46:32;;;;;;;9.93;3.72;;;21.80;99.90;;;;;;5069950;28;20024;-73
2022/06/30 08:48:59;;;;;;;8.82;3.90;;;21.70;99.90;;;;;;5073341;28;20112;-73
2022/06/30 08:51:28;;;;;;;13.07;4.05;;;21.80;99.90;;;;;;5072946;28;20051;-73
2022/06/30 08:54:00;;;;;;;12.52;3.30;;;22.30;99.90;;;;;;5072953;28;20021;-74
2022/06/30 08:56:30;;;;;;;7.30;3.17;;;22.20;99.90;;;;;;5072614;28;20040;-73
2022/06/30 08:58:57;;;;;;;10.75;3.88;;;22.00;99.90;;;;;;5072632;28;20123;-73
2022/06/30 09:01:26;;;;;;;6.97;3.58;;;21.80;99.90;;;;;;5071547;28;20549;-72
2022/06/30 09:03:52;;;;;;;9.70;3.30;;;22.00;99.90;;;;;;5073027;28;20029;-73
2022/06/30 09:06:18;;;;;;;8.50;3.05;;;22.30;99.90;;;;;;5072834;28;20024;-74
2022/06/30 09:08:44;;;;;;;7.93;2.50;;;22.70;99.90;;;;;;5066551;28;20056;-73
2022/06/30 09:11:10;;;;;;;10.95;3.33;;;23.10;99.90;;;;;;5072443;28;20020;-73
2022/06/30 09:13:42;;;;;;;14.05;3.30;;;22.60;99.90;;;;;;5072595;28;20139;-74
2022/06/30 09:16:08;;;;;;;9.73;3.40;;;23.00;99.90;;;;;;5072650;28;20032;-73
2022/06/30 09:18:34;;;;;;;10.48;3.17;;;22.60;99.90;;;;;;5072684;28;20024;-74
2022/06/30 09:21:06;;;;;;;7.80;2.67;;;22.20;99.90;;;;;;5072503;28;20051;-75
2022/06/30 09:23:35;;;;;;;9.07;2.80;;;22.20;99.90;;;;;;5072785;28;20028;-74
2022/06/30 09:26:02;;;;;;;6.97;2.97;;;22.20;99.90;;;;;;5072221;28;20021;-74
2022/06/30 09:28:50;;;;;;;7.85;2.95;;;22.60;99.90;;;;;;5071296;28;20060;-75
2022/06/30 09:31:34;;;;;;;7.38;2.88;;;22.50;99.90;;;;;;5072411;28;20060;-74
2022/06/30 09:34:20;;;;;;;5.72;2.58;;;22.40;99.90;;;;;;5072205;28;20043;-74
2022/06/30 09:36:51;;;;;;;5.75;2.40;;;22.10;99.90;;;;;;5072360;28;20031;-72
2022/06/30 09:39:18;;;;;;;7.93;3.17;;;21.80;99.90;;;;;;5070937;28;20122;-75
2022/06/30 09:41:46;;;;;;;9.35;2.72;;;21.70;99.90;;;;;;5072226;28;20423;-74
2022/06/30 09:44:18;;;;;;;9.57;3.92;;;21.70;99.90;;;;;;5072383;28;20056;-74
2022/06/30 09:46:59;;;;;;;7.93;2.60;;;22.00;99.90;;;;;;5068981;28;20362;-74
2022/06/30 09:49:45;;;;;;;7.75;2.40;;;21.90;99.90;;;;;;5072132;28;20037;-74
2022/06/30 09:52:25;;;;;;;9.73;3.63;;;22.30;99.90;;;;;;5072258;28;20028;-74
2022/06/30 09:54:58;;;;;;;9.90;2.55;;;22.70;99.90;;;;;;5071979;28;20033;-74
2022/06/30 09:57:30;;;;;;;4.65;1.95;;;23.20;99.90;;;;;;5071912;28;20024;-73
2022/06/30 09:59:59;;;;;;;5.53;2.10;;;22.80;99.90;;;;;;5072114;28;20036;-73
2022/06/30 10:02:52;;;;;;;4.35;1.50;;;22.30;99.90;;;;;;5070729;28;20162;-75
2022/06/30 10:05:19;;;;;;;4.20;1.48;;;22.10;99.90;;;;;;5072665;28;20107;-74
2022/06/30 10:07:45;;;;;;;7.57;1.48;;;22.10;99.90;;;;;;5074722;28;20032;-74
2022/06/30 10:10:14;;;;;;;6.10;1.23;;;21.90;99.90;;;;;;5070121;28;20029;-74
2022/06/30 10:12:44;;;;;;;9.23;1.83;;;21.80;99.90;;;;;;5075601;28;20130;-74
2022/06/30 10:15:11;;;;;;;4.88;1.45;;;21.80;99.90;;;;;;5075657;28;20035;-74
2022/06/30 10:17:44;;;;;;;4.72;1.42;;;21.80;99.90;;;;;;5075122;28;20035;-74
2022/06/30 10:20:10;;;;;;;3.97;1.55;;;21.80;99.90;;;;;;5075635;28;20601;-74
2022/06/30 10:22:39;;;;;;;5.85;1.48;;;21.70;99.90;;;;;;5075011;28;20473;-74
2022/06/30 10:25:05;;;;;;;5.40;1.45;;;21.20;99.90;;;;;;5075514;28;20066;-74
2022/06/30 10:27:32;;;;;;;6.97;1.77;;;21.20;99.90;;;;;;5075068;28;20036;-74
2022/06/30 10:30:06;;;;;;;3.28;1.38;;;21.20;99.90;;;;;;5075312;28;20473;-74
2022/06/30 10:32:38;;;;;;;3.25;1.30;;;21.20;99.90;;;;;;5074838;28;20527;-74
2022/06/30 10:35:28;;;;;;;8.13;1.23;;;21.20;99.90;;;;;;5073891;28;20108;-73
2022/06/30 10:37:59;;;;;;;5.43;1.55;;;21.30;99.90;;;;;;5074626;28;20032;-73
2022/06/30 10:40:59;;;;;;;6.32;1.45;;;21.60;99.90;;;;;;5075299;28;20037;-75
2022/06/30 10:43:25;;;;;;;5.22;1.35;;;21.70;99.90;;;;;;5075071;28;20107;-74
2022/06/30 10:46:05;;;;;;;4.28;1.10;;;21.40;99.90;;;;;;5075240;28;20025;-75
2022/06/30 10:48:53;;;;;;;7.50;1.38;;;21.10;99.90;;;;;;5071127;28;20036;-73
2022/06/30 10:51:19;;;;;;;5.40;1.70;;;20.60;99.90;;;;;;5074672;28;20420;-74
2022/06/30 10:53:45;;;;;;;4.70;1.30;;;20.50;99.90;;;;;;5074913;28;20103;-73
2022/06/30 10:56:11;;;;;;;6.28;1.60;;;20.70;99.90;;;;;;5075149;28;20056;-75
2022/06/30 10:58:37;;;;;;;4.40;1.35;;;20.30;99.90;;;;;;5074434;28;20461;-73
2022/06/30 11:01:05;;;;;;;5.97;1.35;;;20.20;99.90;;;;;;5074932;28;20381;-73
2022/06/30 11:03:32;;;;;;;7.07;1.67;;;20.00;99.90;;;;;;5074555;28;20028;-74
2022/06/30 11:05:59;;;;;;;4.97;2.03;;;19.80;99.90;;;;;;5074536;28;20100;-73
2022/06/30 11:08:38;;;;;;;7.47;1.73;;;19.80;99.90;;;;;;5068597;28;20033;-73
2022/06/30 11:11:23;;;;;;;8.18;1.92;;;20.00;99.90;;;;;;5050586;28;20028;-74
2022/06/30 11:14:03;;;;;;;4.28;1.60;;;19.80;99.90;;;;;;5073265;28;20158;-73
2022/06/30 11:16:31;;;;;;;5.43;1.92;;;20.20;99.90;;;;;;5073799;28;20456;-74
2022/06/30 11:18:57;;;;;;;5.95;2.20;;;20.30;99.90;;;;;;5074479;28;20043;-75
2022/06/30 11:21:23;;;;;;;8.10;1.15;;;20.10;99.90;;;;;;5074340;28;20485;-73
2022/06/30 11:23:50;;;;;;;5.53;1.15;;;20.30;99.90;;;;;;5074270;28;20021;-75
2022/06/30 11:29:03;;;;;;;4.40;1.60;;;20.70;99.90;;;;;;5074000;28;20041;-74
2022/06/30 11:31:33;;;;;;;9.23;1.70;;;21.10;99.90;;;;;;5074298;28;20108;-74
2022/06/30 11:34:15;;;;;;;4.72;1.77;;;21.20;99.90;;;;;;5074039;28;20040;-74
2022/06/30 11:36:43;;;;;;;6.75;2.08;;;21.20;99.90;;;;;;5074236;28;20032;-74
2022/06/30 11:39:11;;;;;;;8.10;2.60;;;21.30;99.90;;;;;;5073926;28;20028;-74
2022/06/30 11:41:57;;;;;;;4.50;1.95;;;21.40;99.90;;;;;;5073965;28;20032;-74
2022/06/30 11:44:43;;;;;;;4.65;2.00;;;21.00;99.90;;;;;;5074076;28;20028;-75
2022/06/30 11:47:17;;;;;;;4.38;1.80;;;20.50;99.90;;;;;;5070832;28;20075;-73
2022/06/30 11:49:48;;;;;;;6.55;2.30;;;20.30;99.90;;;;;;5073312;28;20040;-74
2022/06/30 11:52:22;;;;;;;9.07;2.70;;;20.10;99.90;;;;;;5047487;28;20036;-73
2022/06/30 11:55:14;;;;;;;7.40;2.88;;;20.00;99.90;;;;;;5073767;28;20054;-74
2022/06/30 11:57:43;;;;;;;15.25;3.15;;;20.30;99.90;;;;;;5052769;28;20060;-75
2022/06/30 12:00:18;;;;;;;8.30;2.60;;;20.30;99.90;;;;;;5073328;28;20437;-74
2022/06/30 12:02:45;;;;;;;11.65;2.67;;;20.10;99.90;;;;;;5073746;28;20032;-74
2022/06/30 12:05:13;;;;;;;8.05;2.60;;;20.10;99.90;;;;;;5073117;28;20040;-73
2022/06/30 12:07:40;;;;;;;11.38;2.92;;;20.20;99.90;;;;;;5073422;28;20057;-73
2022/06/30 12:10:08;;;;;;;8.02;2.42;;;20.50;99.90;;;;;;5067715;28;20389;-74
2022/06/30 12:12:36;;;;;;;6.47;2.55;;;20.30;99.90;;;;;;5045920;28;20127;-74
2022/06/30 12:15:06;;;;;;;8.40;2.50;;;20.00;99.90;;;;;;5073195;28;20048;-72
2022/06/30 12:17:38;;;;;;;7.28;2.67;;;19.90;99.90;;;;;;5073529;28;20442;-73
2022/06/30 12:20:07;;;;;;;6.05;2.30;;;20.00;99.90;;;;;;5073145;28;20032;-74
2022/06/30 12:22:34;;;;;;;6.53;2.10;;;20.10;99.90;;;;;;5073290;28;20100;-74
2022/06/30 12:25:00;;;;;;;9.65;2.25;;;20.30;99.90;;;;;;5073347;28;20047;-74
2022/06/30 12:27:50;;;;;;;8.45;2.50;;;20.10;99.90;;;;;;5072603;28;20032;-75
2022/06/30 12:30:31;;;;;;;11.63;2.53;;;20.00;99.90;;;;;;5072813;28;20045;-74
2022/06/30 12:33:01;;;;;;;11.68;2.58;;;20.30;99.90;;;;;;5072919;28;20032;-73
2022/06/30 12:35:32;;;;;;;10.98;3.05;;;20.00;99.90;;;;;;5073423;28;20028;-73
2022/06/30 12:38:13;;;;;;;7.47;3.10;;;20.00;99.90;;;;;;5073063;28;20477;-75
2022/06/30 12:40:40;;;;;;;10.77;3.08;;;20.50;99.90;;;;;;5073100;28;20036;-73
2022/06/30 12:43:07;;;;;;;6.35;2.08;;;20.60;99.90;;;;;;5072866;28;20016;-73
2022/06/30 12:46:00;;;;;;;8.63;2.72;;;20.00;99.90;;;;;;5073042;28;20389;-73
2022/06/30 12:48:44;;;;;;;8.50;2.58;;;20.20;99.90;;;;;;5067256;28;20032;-75
2022/06/30 12:51:13;;;;;;;5.50;2.50;;;20.00;99.90;;;;;;5072989;28;20032;-75
2022/06/30 12:53:40;;;;;;;13.15;2.58;;;19.90;99.90;;;;;;5073025;28;20058;-73
2022/06/30 12:56:14;;;;;;;7.70;2.75;;;20.00;99.90;;;;;;5072786;28;20369;-75
2022/06/30 12:58:49;;;;;;;7.13;2.42;;;20.00;99.90;;;;;;5072725;28;20021;-73
2022/06/30 13:01:26;;;;;;;8.30;2.78;;;20.10;99.90;;;;;;5072824;28;20068;-73